Time;durP1;ratioP1;P1;durP2;ratioP2;P2;SDS_P1;SDS_P2;PMS_P1;PMS_P2;Temp;Humidity;BMP_temperature;BMP_pressure;BME280_temperature;BME280_humidity;BME280_pressure;Samples;Min_cycle;Max_cycle;Signal;HPM_P1;HPM_P2
2021/06/27 00:02:13;;;;;;;8.93;8.13;;;25.60;55.30;;;;;;4918867;29;20408;-82
2021/06/27 00:04:40;;;;;;;8.00;7.20;;;25.60;55.30;;;;;;4912052;29;20438;-83
2021/06/27 00:07:08;;;;;;;7.93;7.23;;;25.60;55.30;;;;;;4913787;29;20417;-83
2021/06/27 00:09:34;;;;;;;8.63;7.70;;;25.60;55.30;;;;;;4912455;29;20440;-83
2021/06/27 00:12:01;;;;;;;7.90;7.20;;;25.60;55.30;;;;;;4911862;29;20425;-83
2021/06/27 00:14:29;;;;;;;8.30;7.50;;;25.60;55.30;;;;;;4912424;29;20927;-83
2021/06/27 00:16:55;;;;;;;8.27;7.53;;;25.60;55.30;;;;;;4911920;29;20421;-83
2021/06/27 00:19:24;;;;;;;7.90;7.23;;;25.60;55.30;;;;;;4912860;29;20500;-83
2021/06/27 00:21:52;;;;;;;8.00;7.30;;;25.60;55.40;;;;;;4911961;29;20420;-83
2021/06/27 00:24:19;;;;;;;7.97;7.17;;;25.50;55.30;;;;;;4912333;29;20444;-83
2021/06/27 00:26:46;;;;;;;8.03;7.23;;;25.60;55.40;;;;;;4912204;29;20421;-82
2021/06/27 00:29:13;;;;;;;8.73;7.93;;;25.50;55.40;;;;;;4911793;29;20452;-83
2021/06/27 00:31:42;;;;;;;7.73;7.03;;;25.50;55.40;;;;;;4912115;29;20421;-83
2021/06/27 00:34:08;;;;;;;7.97;7.27;;;25.50;55.40;;;;;;4912147;29;20467;-83
2021/06/27 00:36:34;;;;;;;8.00;7.30;;;25.50;55.40;;;;;;4912645;29;20484;-83
2021/06/27 00:39:00;;;;;;;7.80;7.10;;;25.50;55.40;;;;;;4911984;29;20958;-83
2021/06/27 00:41:27;;;;;;;8.23;7.43;;;25.50;55.40;;;;;;4911785;29;20420;-83
2021/06/27 00:43:53;;;;;;;8.53;7.33;;;25.50;55.40;;;;;;4912037;29;20187;-83
2021/06/27 00:50:04;;;;;;;7.90;7.10;;;25.60;55.50;;;;;;4915657;29;20163;-82
2021/06/27 00:52:30;;;;;;;8.63;7.83;;;25.50;55.50;;;;;;4901575;29;20540;-82
2021/06/27 00:54:58;;;;;;;7.70;6.90;;;25.40;55.50;;;;;;4917908;29;20449;-82
2021/06/27 00:57:31;;;;;;;7.33;6.73;;;25.40;55.50;;;;;;4917469;29;20212;-82
2021/06/27 00:59:57;;;;;;;7.97;7.17;;;25.40;55.40;;;;;;4918104;29;20421;-82
2021/06/27 01:02:24;;;;;;;7.30;6.60;;;25.40;55.40;;;;;;4917514;29;20433;-82
2021/06/27 01:04:50;;;;;;;7.53;6.83;;;25.40;55.40;;;;;;4917497;29;20484;-82
2021/06/27 01:07:19;;;;;;;7.33;6.63;;;25.50;55.40;;;;;;4917922;29;20421;-82
2021/06/27 01:09:45;;;;;;;8.20;7.40;;;25.50;55.30;;;;;;4916945;29;20460;-82
2021/06/27 01:12:25;;;;;;;8.40;7.27;;;25.50;55.30;;;;;;4917714;29;20468;-83
2021/06/27 01:15:06;;;;;;;7.17;6.47;;;25.50;55.30;;;;;;4913322;29;20458;-83
2021/06/27 01:17:36;;;;;;;7.67;6.97;;;25.50;55.20;;;;;;4912963;29;20448;-83
2021/06/27 01:20:26;;;;;;;8.37;7.57;;;25.50;55.20;;;;;;4914475;29;20409;-83
2021/06/27 01:22:53;;;;;;;8.50;7.80;;;25.50;55.30;;;;;;4896589;29;20433;-83
2021/06/27 01:25:26;;;;;;;8.40;7.43;;;25.40;55.30;;;;;;4913166;29;20455;-83
2021/06/27 01:27:52;;;;;;;8.27;7.40;;;25.40;55.20;;;;;;4912151;29;20413;-83
2021/06/27 01:30:19;;;;;;;7.70;6.90;;;25.40;55.20;;;;;;4912335;29;20428;-83
2021/06/27 01:32:55;;;;;;;8.57;7.87;;;25.40;55.30;;;;;;4912831;29;20479;-83
2021/06/27 01:35:26;;;;;;;7.37;6.70;;;25.40;55.30;;;;;;4913087;29;20428;-83
2021/06/27 01:37:54;;;;;;;7.60;6.90;;;25.40;55.20;;;;;;4913024;29;20465;-83
2021/06/27 01:40:24;;;;;;;7.90;7.13;;;25.40;55.20;;;;;;4916410;29;20452;-83
2021/06/27 01:42:50;;;;;;;7.20;6.60;;;25.40;55.20;;;;;;4915323;29;20445;-82
2021/06/27 01:45:25;;;;;;;8.13;6.67;;;25.40;55.30;;;;;;4915779;29;20915;-82
2021/06/27 01:48:23;;;;;;;8.43;7.63;;;25.40;55.20;;;;;;4916714;29;20475;-82
2021/06/27 01:50:54;;;;;;;8.23;7.43;;;25.40;55.20;;;;;;4909890;29;20425;-82
2021/06/27 01:53:26;;;;;;;8.57;7.77;;;25.40;55.30;;;;;;4915714;29;20471;-82
2021/06/27 01:56:06;;;;;;;8.57;7.43;;;25.30;55.20;;;;;;4917041;29;20404;-82
2021/06/27 01:59:01;;;;;;;7.27;6.60;;;25.30;55.20;;;;;;4916112;29;20408;-82
2021/06/27 02:01:34;;;;;;;8.00;7.30;;;25.30;55.20;;;;;;4916382;29;20408;-82
2021/06/27 02:04:01;;;;;;;7.20;6.50;;;25.30;55.30;;;;;;4914399;29;20819;-82
2021/06/27 02:06:28;;;;;;;8.03;7.33;;;25.30;55.30;;;;;;4915092;29;20464;-83
2021/06/27 02:09:07;;;;;;;8.80;7.73;;;25.30;55.30;;;;;;4914963;29;20425;-83
2021/06/27 02:11:36;;;;;;;8.80;7.90;;;25.30;55.20;;;;;;4914924;29;20428;-83
2021/06/27 02:17:44;;;;;;;8.20;7.00;;;25.30;55.20;;;;;;4916175;29;20407;-83
2021/06/27 02:20:10;;;;;;;7.10;6.40;;;25.30;55.20;;;;;;4915071;29;20421;-83
2021/06/27 02:22:36;;;;;;;7.60;6.90;;;25.20;55.20;;;;;;4915183;29;20440;-83
2021/06/27 02:25:07;;;;;;;7.83;7.13;;;25.20;55.80;;;;;;4915098;29;20466;-84
2021/06/27 02:27:35;;;;;;;8.10;7.40;;;25.20;55.20;;;;;;4914527;29;20207;-83
2021/06/27 02:33:39;;;;;;;8.57;7.67;;;25.20;55.20;;;;;;4915377;29;20484;-83
2021/06/27 02:36:13;;;;;;;8.20;7.37;;;25.20;55.10;;;;;;4914720;29;20510;-83
2021/06/27 02:38:40;;;;;;;8.00;7.20;;;25.20;55.20;;;;;;4913845;29;20424;-83
2021/06/27 02:41:07;;;;;;;7.83;6.87;;;25.20;55.20;;;;;;4914515;29;20475;-84
2021/06/27 02:43:33;;;;;;;8.50;7.53;;;25.20;55.10;;;;;;4915420;29;20409;-83
2021/06/27 02:45:59;;;;;;;7.83;7.13;;;25.20;55.10;;;;;;4915414;29;20440;-83
2021/06/27 02:48:27;;;;;;;7.90;7.20;;;25.20;55.10;;;;;;4913979;29;20419;-83
2021/06/27 02:50:53;;;;;;;9.13;7.30;;;25.20;55.00;;;;;;4915427;29;20178;-83
2021/06/27 02:53:21;;;;;;;9.17;7.97;;;25.20;55.00;;;;;;4914965;29;20505;-83
2021/06/27 02:56:08;;;;;;;7.23;6.63;;;25.10;55.00;;;;;;4915353;29;20793;-83
2021/06/27 02:58:36;;;;;;;7.03;6.43;;;25.20;55.00;;;;;;4914333;29;20444;-82
2021/06/27 03:01:05;;;;;;;7.13;6.50;;;25.10;55.00;;;;;;4914518;29;20420;-82
2021/06/27 03:03:31;;;;;;;9.53;7.47;;;25.10;54.70;;;;;;4914704;29;20432;-82
2021/06/27 03:05:57;;;;;;;7.90;7.20;;;25.10;55.00;;;;;;4914634;29;20500;-83
2021/06/27 03:08:28;;;;;;;9.93;7.40;;;25.10;55.00;;;;;;4913956;29;20793;-83
2021/06/27 03:10:55;;;;;;;8.00;7.30;;;25.10;55.00;;;;;;4913976;29;20676;-82
2021/06/27 03:13:21;;;;;;;8.33;7.53;;;25.10;54.90;;;;;;4913901;29;20832;-82
2021/06/27 03:15:48;;;;;;;7.23;6.53;;;25.10;54.90;;;;;;4915623;29;20453;-82
2021/06/27 03:18:27;;;;;;;8.03;7.13;;;25.10;55.00;;;;;;4914255;29;20457;-83
2021/06/27 03:20:52;;;;;;;6.93;6.33;;;25.10;54.90;;;;;;4914015;29;20425;-83
2021/06/27 03:23:18;;;;;;;8.20;7.43;;;25.10;54.90;;;;;;4914935;29;20516;-83
2021/06/27 03:25:48;;;;;;;7.47;6.77;;;25.10;54.90;;;;;;4913814;29;20184;-84
2021/06/27 03:28:14;;;;;;;7.10;6.50;;;25.10;55.00;;;;;;4915058;29;20444;-84
2021/06/27 03:30:41;;;;;;;10.57;6.53;;;25.10;54.90;;;;;;4914130;29;20429;-84
2021/06/27 03:33:08;;;;;;;8.37;7.57;;;25.10;54.80;;;;;;4913357;29;20464;-84
2021/06/27 03:35:34;;;;;;;8.17;7.47;;;25.10;54.80;;;;;;4914267;29;20425;-84
2021/06/27 03:40:29;;;;;;;12.23;7.97;;;25.10;54.90;;;;;;4915798;29;20172;-84
2021/06/27 03:43:01;;;;;;;8.20;7.40;;;25.00;54.80;;;;;;4913738;29;20439;-83
2021/06/27 03:45:34;;;;;;;8.03;7.23;;;25.10;54.90;;;;;;4914478;29;20480;-84
2021/06/27 03:48:00;;;;;;;7.47;6.67;;;25.10;54.90;;;;;;4913944;29;20451;-84
2021/06/27 03:50:26;;;;;;;8.37;7.50;;;25.00;54.80;;;;;;4913654;29;20428;-84
2021/06/27 03:52:54;;;;;;;8.40;7.60;;;25.00;54.80;;;;;;4914081;29;20212;-84
2021/06/27 03:55:21;;;;;;;7.20;6.50;;;25.10;54.80;;;;;;4913843;29;20425;-84
2021/06/27 03:57:50;;;;;;;9.50;7.30;;;25.00;54.80;;;;;;4912837;29;20449;-83
2021/06/27 04:00:17;;;;;;;7.53;6.83;;;25.10;54.80;;;;;;4912823;29;20425;-83
2021/06/27 04:03:03;;;;;;;8.00;7.30;;;25.00;54.70;;;;;;4913035;29;20496;-83
2021/06/27 04:05:39;;;;;;;7.00;6.40;;;25.10;54.70;;;;;;4914549;29;20424;-83
2021/06/27 04:08:08;;;;;;;7.77;6.97;;;25.10;54.70;;;;;;4914433;29;20396;-84
2021/06/27 04:10:37;;;;;;;7.47;6.77;;;25.00;54.60;;;;;;4913146;29;20417;-84
2021/06/27 04:13:06;;;;;;;7.30;6.70;;;25.10;54.60;;;;;;4913830;29;20464;-83
2021/06/27 04:15:37;;;;;;;7.93;7.13;;;25.10;54.60;;;;;;4912878;29;20425;-83
2021/06/27 04:18:08;;;;;;;7.03;6.40;;;25.10;54.60;;;;;;4914129;29;20416;-83
2021/06/27 04:20:37;;;;;;;7.87;7.10;;;25.10;54.60;;;;;;4912772;29;20420;-83
2021/06/27 04:23:03;;;;;;;7.93;7.13;;;25.10;54.60;;;;;;4913148;29;20440;-84
2021/06/27 04:25:33;;;;;;;7.23;6.63;;;25.10;54.50;;;;;;4913665;29;20445;-83
2021/06/27 04:27:59;;;;;;;6.90;6.20;;;25.10;54.50;;;;;;4912026;29;20424;-84
2021/06/27 04:30:25;;;;;;;8.00;6.97;;;25.10;54.50;;;;;;4912936;29;20429;-83
2021/06/27 04:32:51;;;;;;;7.57;6.97;;;25.10;54.50;;;;;;4912776;29;20223;-83
2021/06/27 04:35:17;;;;;;;8.20;7.13;;;25.10;54.50;;;;;;4911849;29;20432;-83
2021/06/27 04:37:43;;;;;;;7.20;6.50;;;25.10;54.40;;;;;;4911469;29;20444;-82
2021/06/27 04:40:13;;;;;;;8.03;7.33;;;25.10;54.40;;;;;;4911252;29;20444;-81
2021/06/27 04:42:39;;;;;;;7.23;6.53;;;25.10;54.40;;;;;;4911102;29;20431;-82
2021/06/27 04:45:06;;;;;;;7.13;6.50;;;25.10;54.40;;;;;;4910676;29;20427;-82
2021/06/27 04:47:34;;;;;;;7.63;6.93;;;25.10;54.30;;;;;;4911905;29;20500;-82
2021/06/27 04:50:00;;;;;;;8.33;7.40;;;25.10;54.30;;;;;;4911302;29;20420;-82
2021/06/27 04:52:26;;;;;;;7.30;6.60;;;25.10;54.30;;;;;;4911264;29;20468;-82
2021/06/27 04:54:55;;;;;;;7.67;6.97;;;25.10;54.30;;;;;;4911281;29;20927;-82
2021/06/27 04:57:21;;;;;;;8.50;7.70;;;25.10;54.30;;;;;;4911029;29;20420;-82
2021/06/27 04:59:47;;;;;;;9.53;7.23;;;25.10;54.30;;;;;;4910929;29;20481;-83
2021/06/27 05:02:13;;;;;;;7.70;7.00;;;25.10;54.30;;;;;;4912030;29;20291;-81
2021/06/27 05:04:42;;;;;;;7.17;6.57;;;25.10;54.40;;;;;;4911797;29;20444;-82
2021/06/27 05:07:11;;;;;;;7.30;6.67;;;25.10;54.40;;;;;;4910700;29;20436;-82
2021/06/27 05:09:43;;;;;;;8.07;7.37;;;25.10;54.40;;;;;;4911850;29;20421;-83
2021/06/27 05:12:11;;;;;;;7.80;7.00;;;25.20;54.50;;;;;;4912392;29;20416;-83
2021/06/27 05:14:38;;;;;;;8.50;7.60;;;25.10;54.40;;;;;;4915117;29;20412;-83
2021/06/27 05:17:07;;;;;;;9.23;6.90;;;25.10;54.50;;;;;;4915014;29;20417;-82
2021/06/27 05:19:34;;;;;;;12.27;6.87;;;25.10;54.40;;;;;;4915480;29;20465;-83
2021/06/27 05:22:06;;;;;;;7.63;6.93;;;25.10;54.40;;;;;;4915364;29;20480;-83
2021/06/27 05:24:33;;;;;;;7.93;6.27;;;25.10;54.50;;;;;;4915621;29;20448;-83
2021/06/27 05:26:59;;;;;;;6.90;6.30;;;25.20;54.50;;;;;;4916115;29;20412;-83
2021/06/27 05:29:25;;;;;;;8.50;7.67;;;25.10;54.50;;;;;;4915168;29;20472;-82
2021/06/27 05:31:54;;;;;;;8.30;7.10;;;25.10;54.40;;;;;;4914933;29;20420;-83
2021/06/27 05:34:20;;;;;;;7.40;6.10;;;25.10;54.60;;;;;;4914793;29;20495;-83
2021/06/27 05:36:46;;;;;;;7.90;7.20;;;25.10;54.50;;;;;;4914933;29;20448;-83
2021/06/27 05:39:13;;;;;;;9.90;8.70;;;25.10;54.50;;;;;;4914930;29;20452;-83
2021/06/27 05:41:40;;;;;;;8.30;7.43;;;25.10;54.50;;;;;;4915153;29;20413;-83
2021/06/27 05:44:07;;;;;;;7.50;6.80;;;25.10;54.50;;;;;;4914287;29;20804;-82
2021/06/27 05:46:34;;;;;;;7.40;6.70;;;25.10;54.50;;;;;;4914675;29;20428;-83
2021/06/27 05:49:05;;;;;;;7.67;6.87;;;25.10;54.60;;;;;;4914756;29;20451;-82
2021/06/27 05:51:36;;;;;;;8.43;7.13;;;25.10;54.60;;;;;;4914399;29;20432;-82
2021/06/27 05:54:02;;;;;;;8.80;6.67;;;25.10;54.60;;;;;;4913957;29;20471;-82
2021/06/27 05:56:28;;;;;;;8.60;7.70;;;25.20;54.70;;;;;;4914607;29;20416;-83
2021/06/27 05:58:55;;;;;;;7.03;6.43;;;25.10;54.70;;;;;;4914389;29;20420;-82
2021/06/27 06:01:24;;;;;;;7.83;7.13;;;25.20;54.80;;;;;;4914793;29;20424;-81
2021/06/27 06:03:51;;;;;;;8.33;7.40;;;25.10;54.70;;;;;;4915545;29;20425;-82
2021/06/27 06:06:25;;;;;;;7.90;7.00;;;25.20;54.80;;;;;;4915873;29;20416;-82
2021/06/27 06:09:01;;;;;;;8.53;7.20;;;25.20;54.90;;;;;;4914357;29;20416;-82
2021/06/27 06:11:27;;;;;;;7.80;7.10;;;25.10;54.90;;;;;;4916330;29;20967;-82
2021/06/27 06:13:57;;;;;;;9.23;8.33;;;25.10;54.90;;;;;;4916653;29;20523;-82
2021/06/27 06:16:25;;;;;;;8.20;7.40;;;25.20;55.00;;;;;;4915468;29;20425;-81
2021/06/27 06:19:01;;;;;;;8.20;7.40;;;25.20;55.00;;;;;;4915103;29;20448;-83
2021/06/27 06:21:31;;;;;;;7.50;6.30;;;25.20;55.00;;;;;;4914700;29;20420;-83
2021/06/27 06:27:02;;;;;;;7.63;6.93;;;25.20;55.10;;;;;;4911146;29;20427;-83
2021/06/27 06:29:28;;;;;;;7.10;6.50;;;25.10;55.10;;;;;;4914817;29;20501;-83
2021/06/27 06:31:57;;;;;;;7.10;6.50;;;25.20;55.20;;;;;;4914159;29;20454;-82
2021/06/27 06:34:24;;;;;;;8.00;7.20;;;25.20;55.20;;;;;;4914546;29;20479;-83
2021/06/27 06:36:53;;;;;;;7.87;7.17;;;25.20;55.20;;;;;;4915795;29;20420;-83
2021/06/27 06:39:20;;;;;;;8.10;7.40;;;25.10;55.10;;;;;;4914125;29;20429;-82
2021/06/27 06:41:48;;;;;;;8.00;7.30;;;25.10;55.10;;;;;;4915284;29;20428;-82
2021/06/27 06:44:15;;;;;;;9.60;6.57;;;25.20;55.30;;;;;;4914003;29;20457;-83
2021/06/27 06:46:41;;;;;;;7.77;7.07;;;25.20;55.30;;;;;;4913656;29;20504;-83
2021/06/27 06:49:08;;;;;;;6.60;6.00;;;25.20;55.30;;;;;;4915351;29;20417;-83
2021/06/27 06:51:34;;;;;;;7.20;6.50;;;25.20;55.30;;;;;;4913764;29;20423;-83
2021/06/27 06:54:01;;;;;;;7.60;6.43;;;25.20;55.30;;;;;;4916464;29;20460;-83
2021/06/27 06:56:29;;;;;;;7.37;6.67;;;25.20;55.30;;;;;;4918461;29;20427;-83
2021/06/27 06:58:55;;;;;;;8.20;7.40;;;25.20;55.30;;;;;;4916907;29;20416;-83
2021/06/27 07:01:21;;;;;;;7.93;6.80;;;25.20;55.90;;;;;;4921718;29;20420;-83
2021/06/27 07:03:50;;;;;;;7.13;6.30;;;25.20;55.40;;;;;;4923268;29;20253;-83
2021/06/27 07:06:19;;;;;;;8.10;7.37;;;25.20;55.40;;;;;;4925772;29;20428;-83
2021/06/27 07:08:45;;;;;;;7.77;7.00;;;25.20;55.30;;;;;;4922741;29;20421;-82
2021/06/27 07:11:11;;;;;;;7.87;7.07;;;25.20;55.40;;;;;;4927868;29;20466;-83
2021/06/27 07:13:38;;;;;;;8.50;7.70;;;25.20;55.40;;;;;;4928656;29;20961;-84
2021/06/27 07:16:05;;;;;;;7.80;7.00;;;25.20;55.30;;;;;;4931359;29;20482;-83
2021/06/27 07:18:31;;;;;;;7.63;6.93;;;25.20;55.30;;;;;;4928821;29;20510;-84
2021/06/27 07:20:57;;;;;;;7.57;6.87;;;25.20;55.30;;;;;;4928560;29;20412;-84
2021/06/27 07:23:27;;;;;;;8.37;6.40;;;25.30;55.40;;;;;;4933596;29;20675;-83
2021/06/27 07:25:53;;;;;;;7.67;7.07;;;25.30;55.40;;;;;;4933353;29;20958;-83
2021/06/27 07:28:19;;;;;;;6.60;6.10;;;25.30;55.40;;;;;;4927985;29;20448;-84
2021/06/27 07:30:45;;;;;;;8.80;6.87;;;25.30;55.50;;;;;;4952354;29;20453;-82
2021/06/27 07:36:36;;;;;;;7.27;6.57;;;25.30;55.50;;;;;;4933625;29;20407;-83
2021/06/27 07:39:03;;;;;;;7.50;6.90;;;25.30;55.70;;;;;;4928472;29;20460;-84
2021/06/27 07:41:29;;;;;;;7.13;6.43;;;25.30;55.70;;;;;;4937826;29;20482;-84
2021/06/27 07:43:57;;;;;;;7.50;6.80;;;25.30;55.70;;;;;;4935640;29;20492;-83
2021/06/27 07:46:23;;;;;;;7.67;6.97;;;25.30;55.70;;;;;;4931966;29;20420;-84
2021/06/27 07:48:49;;;;;;;8.23;7.13;;;25.30;55.80;;;;;;4924086;29;20445;-84
2021/06/27 07:51:17;;;;;;;6.97;6.37;;;25.30;55.80;;;;;;4931159;29;20204;-83
2021/06/27 07:53:43;;;;;;;10.63;7.47;;;25.30;55.70;;;;;;4932939;29;20231;-84
2021/06/27 07:56:10;;;;;;;7.17;6.47;;;25.30;55.70;;;;;;4932546;29;20805;-84
2021/06/27 07:58:38;;;;;;;7.13;6.50;;;25.30;55.80;;;;;;4930718;29;20212;-84
2021/06/27 08:01:05;;;;;;;6.93;6.13;;;25.30;55.90;;;;;;4931215;29;20488;-84
2021/06/27 08:03:33;;;;;;;7.40;6.70;;;25.30;55.90;;;;;;4931107;29;20438;-84
2021/06/27 08:06:01;;;;;;;7.07;6.47;;;25.40;56.00;;;;;;4925788;29;20423;-84
2021/06/27 08:08:27;;;;;;;7.67;6.90;;;25.40;56.00;;;;;;4937908;29;20443;-84
2021/06/27 08:10:56;;;;;;;8.57;7.87;;;25.40;56.00;;;;;;4948491;29;20435;-83
2021/06/27 08:13:22;;;;;;;6.80;6.20;;;25.30;56.00;;;;;;4930597;29;20535;-84
2021/06/27 08:15:51;;;;;;;6.53;5.93;;;25.40;56.10;;;;;;4932280;29;20486;-84
2021/06/27 08:18:20;;;;;;;8.20;6.40;;;25.40;56.20;;;;;;4932309;29;20471;-83
2021/06/27 08:20:54;;;;;;;7.00;6.40;;;25.40;56.20;;;;;;4932988;29;20423;-83
2021/06/27 08:23:37;;;;;;;7.20;6.57;;;25.40;56.10;;;;;;4933652;29;20451;-83
2021/06/27 08:26:04;;;;;;;8.13;7.43;;;25.40;56.10;;;;;;4933520;29;20428;-82
2021/06/27 08:28:31;;;;;;;7.03;6.53;;;25.40;56.60;;;;;;4931892;29;20420;-82
2021/06/27 08:31:00;;;;;;;7.40;6.03;;;25.40;56.00;;;;;;4933307;29;20428;-82
2021/06/27 08:33:38;;;;;;;6.90;6.17;;;25.40;56.00;;;;;;4933666;29;20459;-82
2021/06/27 08:36:35;;;;;;;6.60;6.00;;;25.40;56.00;;;;;;4917770;29;20440;-82
2021/06/27 08:39:08;;;;;;;6.40;5.90;;;25.50;55.90;;;;;;4935181;29;20440;-83
2021/06/27 08:41:35;;;;;;;7.10;6.40;;;25.40;55.90;;;;;;4935584;29;20431;-82
2021/06/27 08:44:08;;;;;;;6.70;6.20;;;25.40;55.80;;;;;;4933921;29;20419;-83
2021/06/27 08:46:42;;;;;;;7.23;6.70;;;25.40;55.70;;;;;;4934158;29;20412;-83
2021/06/27 08:55:35;;;;;;;6.87;6.27;;;25.50;55.60;;;;;;4937237;29;20379;-83
2021/06/27 08:58:02;;;;;;;5.90;5.40;;;25.40;55.60;;;;;;4936639;29;20451;-82
2021/06/27 09:00:34;;;;;;;5.57;5.17;;;25.40;55.60;;;;;;4935505;29;20423;-83
2021/06/27 09:03:00;;;;;;;5.90;5.50;;;25.50;55.60;;;;;;4918362;29;20845;-82
2021/06/27 09:05:32;;;;;;;5.50;5.10;;;25.50;55.50;;;;;;4932177;29;20435;-82
2021/06/27 09:08:18;;;;;;;6.07;5.47;;;25.50;55.50;;;;;;4932491;29;20471;-82
2021/06/27 09:10:45;;;;;;;6.73;6.13;;;25.50;55.40;;;;;;4932970;29;20427;-82
2021/06/27 09:13:13;;;;;;;6.23;5.53;;;25.50;55.50;;;;;;4932930;29;20467;-82
2021/06/27 09:15:44;;;;;;;5.50;5.10;;;25.50;55.50;;;;;;4932181;29;20427;-82
2021/06/27 09:18:24;;;;;;;6.50;5.90;;;25.50;55.40;;;;;;4932062;29;20459;-82
2021/06/27 09:20:58;;;;;;;5.97;5.53;;;25.50;55.30;;;;;;4932292;29;20487;-81
2021/06/27 09:23:43;;;;;;;5.97;5.47;;;25.50;55.30;;;;;;4932759;29;20435;-83
2021/06/27 09:26:14;;;;;;;5.67;5.27;;;25.50;55.30;;;;;;4931775;29;20412;-83
2021/06/27 09:28:47;;;;;;;6.03;5.53;;;25.50;55.30;;;;;;4933294;29;20419;-82
2021/06/27 09:32:06;;;;;;;6.17;5.57;;;25.50;55.30;;;;;;4936015;29;20423;-82
2021/06/27 09:38:33;;;;;;;10.43;5.50;;;25.60;55.30;;;;;;4938338;29;20387;-83
2021/06/27 09:41:25;;;;;;;6.43;5.60;;;25.50;55.30;;;;;;4937531;29;20454;-82
2021/06/27 09:44:18;;;;;;;5.57;5.07;;;25.50;55.30;;;;;;4937739;29;20420;-83
2021/06/27 09:46:57;;;;;;;6.10;5.20;;;25.60;55.30;;;;;;4915279;29;20507;-84
2021/06/27 09:49:39;;;;;;;4.87;4.47;;;25.50;55.30;;;;;;4920603;29;20459;-83
2021/06/27 09:52:09;;;;;;;6.03;5.47;;;25.60;55.30;;;;;;4933005;29;20432;-84
2021/06/27 09:54:37;;;;;;;6.03;5.53;;;25.50;55.20;;;;;;4936098;29;20459;-83
2021/06/27 09:57:07;;;;;;;5.60;5.10;;;25.60;55.20;;;;;;4919649;29;20475;-84
2021/06/27 09:59:40;;;;;;;5.80;5.30;;;25.60;55.20;;;;;;4933764;29;20427;-84
2021/06/27 10:02:29;;;;;;;5.70;5.20;;;25.60;55.10;;;;;;4936214;29;20408;-86
2021/06/27 10:04:56;;;;;;;5.57;5.07;;;25.60;55.10;;;;;;4934080;29;20467;-84
2021/06/27 10:07:38;;;;;;;4.80;4.40;;;25.60;55.10;;;;;;4933942;29;20412;-84
2021/06/27 10:10:19;;;;;;;4.70;4.30;;;25.60;55.10;;;;;;4932882;29;20431;-85
2021/06/27 10:12:47;;;;;;;5.07;4.70;;;25.60;55.10;;;;;;4932968;29;20463;-84
2021/06/27 10:15:15;;;;;;;5.27;4.87;;;25.60;55.10;;;;;;4932417;29;20419;-84
2021/06/27 10:17:44;;;;;;;5.27;4.77;;;25.60;55.10;;;;;;4933717;29;20412;-85
2021/06/27 10:20:12;;;;;;;4.97;4.30;;;25.60;55.10;;;;;;4932331;29;20432;-84
2021/06/27 10:22:39;;;;;;;5.50;5.00;;;25.60;55.00;;;;;;4933131;29;20463;-84
2021/06/27 10:25:12;;;;;;;5.40;4.93;;;25.60;55.00;;;;;;4932773;29;20484;-84
2021/06/27 10:27:39;;;;;;;5.63;5.03;;;25.60;55.00;;;;;;4932952;29;21005;-84
2021/06/27 10:30:13;;;;;;;5.50;4.43;;;25.60;55.00;;;;;;4933536;29;20796;-83
2021/06/27 10:32:42;;;;;;;5.57;5.10;;;25.60;55.00;;;;;;4933586;29;20470;-84
2021/06/27 10:35:10;;;;;;;4.90;4.40;;;25.60;55.00;;;;;;4935266;29;20420;-84
2021/06/27 10:37:45;;;;;;;5.10;4.70;;;25.60;55.00;;;;;;4934016;29;20479;-83
2021/06/27 10:40:16;;;;;;;5.70;5.20;;;25.60;55.00;;;;;;4933277;29;20415;-84
2021/06/27 10:42:51;;;;;;;4.93;4.53;;;25.60;55.00;;;;;;4931855;29;20434;-85
2021/06/27 10:45:21;;;;;;;5.03;4.63;;;25.60;54.90;;;;;;4931885;29;20430;-84
2021/06/27 10:47:48;;;;;;;5.77;5.27;;;25.60;54.90;;;;;;4932052;29;20420;-83
2021/06/27 10:50:16;;;;;;;5.03;4.63;;;25.60;54.90;;;;;;4932162;29;20432;-83
2021/06/27 10:52:51;;;;;;;5.07;4.67;;;25.60;54.90;;;;;;4932398;29;20462;-84
2021/06/27 10:55:26;;;;;;;4.90;4.50;;;25.70;54.90;;;;;;4932101;29;20419;-84
2021/06/27 10:58:09;;;;;;;5.07;4.67;;;25.70;55.00;;;;;;4930955;29;20975;-84
2021/06/27 11:00:56;;;;;;;7.10;4.67;;;25.60;54.90;;;;;;4932101;29;20475;-84
2021/06/27 11:03:41;;;;;;;4.80;4.40;;;25.60;54.90;;;;;;4932400;29;20416;-84
2021/06/27 11:06:18;;;;;;;4.57;4.27;;;25.60;54.90;;;;;;4931626;29;20830;-83
2021/06/27 11:08:55;;;;;;;4.60;4.30;;;25.70;54.90;;;;;;4930083;29;20499;-84
2021/06/27 11:11:23;;;;;;;4.23;3.93;;;25.60;54.80;;;;;;4930864;29;20416;-84
2021/06/27 11:14:10;;;;;;;4.30;3.90;;;25.60;54.90;;;;;;4932800;29;20519;-83
2021/06/27 11:16:56;;;;;;;4.93;4.50;;;25.70;54.90;;;;;;4932668;29;20432;-83
2021/06/27 11:19:31;;;;;;;4.83;4.43;;;25.60;54.80;;;;;;4931611;29;20419;-83
2021/06/27 11:22:17;;;;;;;4.10;3.80;;;25.70;54.90;;;;;;4930451;29;20423;-83
2021/06/27 11:24:50;;;;;;;4.20;3.90;;;25.60;54.80;;;;;;4935112;29;20463;-83
2021/06/27 11:27:36;;;;;;;5.20;4.70;;;25.60;54.80;;;;;;4942672;29;20427;-82
2021/06/27 11:30:31;;;;;;;5.20;4.80;;;25.70;54.90;;;;;;4932432;29;20429;-83
2021/06/27 11:33:14;;;;;;;4.47;4.07;;;25.70;54.90;;;;;;4936189;29;20480;-83
2021/06/27 11:35:59;;;;;;;5.20;4.80;;;25.70;54.90;;;;;;4935679;29;20428;-83
2021/06/27 11:38:46;;;;;;;4.30;4.00;;;25.60;54.80;;;;;;4931393;29;20525;-84
2021/06/27 11:41:32;;;;;;;4.83;4.43;;;25.70;54.90;;;;;;4928544;29;20500;-83
2021/06/27 11:44:14;;;;;;;4.67;4.27;;;25.60;54.80;;;;;;4925838;29;20415;-84
2021/06/27 11:46:53;;;;;;;4.20;3.80;;;25.70;54.90;;;;;;4931196;29;20468;-84
2021/06/27 11:49:31;;;;;;;4.60;4.20;;;25.60;54.80;;;;;;4934068;29;20427;-84
2021/06/27 11:51:57;;;;;;;4.30;3.90;;;25.60;54.80;;;;;;4934949;29;20412;-83
2021/06/27 11:54:31;;;;;;;4.10;3.80;;;25.60;54.80;;;;;;4934347;29;20495;-84
2021/06/27 11:57:08;;;;;;;4.13;3.83;;;25.70;54.80;;;;;;4934888;29;20416;-84
2021/06/27 11:59:37;;;;;;;3.97;3.67;;;25.70;54.80;;;;;;4919591;29;20420;-84
2021/06/27 12:02:18;;;;;;;4.87;4.47;;;25.70;54.80;;;;;;4918906;29;20831;-84
2021/06/27 12:04:56;;;;;;;3.80;3.50;;;25.70;54.80;;;;;;4933673;29;20488;-83
2021/06/27 12:07:27;;;;;;;3.57;3.27;;;25.70;54.70;;;;;;4934050;29;20473;-83
2021/06/27 12:09:54;;;;;;;3.90;3.60;;;25.70;54.80;;;;;;4932740;29;20456;-84
2021/06/27 12:12:54;;;;;;;3.87;3.57;;;25.70;54.80;;;;;;4933227;29;20430;-83
2021/06/27 12:15:20;;;;;;;3.90;3.60;;;25.70;54.60;;;;;;4902263;29;20428;-83
2021/06/27 12:17:48;;;;;;;4.57;4.17;;;25.70;54.70;;;;;;4932506;29;20435;-84
2021/06/27 12:20:15;;;;;;;3.93;3.53;;;25.70;54.70;;;;;;4933303;29;20160;-84
2021/06/27 12:36:28;;;;;;;4.40;4.00;;;25.80;54.70;;;;;;5387886;23;20571;-81
2021/06/27 12:41:35;;;;;;;4.57;3.80;;;25.70;54.60;;;;;;5251012;23;20516;-84
2021/06/27 12:49:22;;;;;;;3.93;3.63;;;25.80;54.70;;;;;;5006740;23;20479;-82
2021/06/27 12:52:07;;;;;;;4.37;3.97;;;25.80;54.60;;;;;;4938955;29;20442;-83
2021/06/27 12:57:55;;;;;;;5.30;3.43;;;25.80;54.60;;;;;;4917770;29;20423;-81
2021/06/27 13:00:29;;;;;;;4.57;4.20;;;25.80;54.60;;;;;;4917991;29;20401;-81
2021/06/27 13:03:22;;;;;;;3.90;3.60;;;25.80;54.70;;;;;;4918929;29;20432;-82
2021/06/27 13:09:16;;;;;;;3.97;3.67;;;25.80;54.60;;;;;;4919578;29;20429;-83
2021/06/27 13:12:24;;;;;;;3.57;3.27;;;25.80;54.60;;;;;;4916831;29;20492;-82
2021/06/27 13:15:15;;;;;;;3.87;3.57;;;25.80;54.60;;;;;;4917757;29;20445;-83
2021/06/27 13:18:11;;;;;;;3.97;3.67;;;25.70;54.60;;;;;;4924022;29;20466;-83
2021/06/27 13:20:40;;;;;;;4.10;3.80;;;25.80;54.60;;;;;;4918873;29;20431;-82
2021/06/27 13:23:06;;;;;;;4.10;3.70;;;25.70;54.60;;;;;;4935879;29;20421;-81
2021/06/27 13:25:43;;;;;;;3.87;3.43;;;25.80;54.60;;;;;;4935809;29;20413;-81
2021/06/27 13:28:17;;;;;;;4.13;3.83;;;25.70;54.50;;;;;;4921250;29;20160;-80
2021/06/27 13:31:01;;;;;;;3.73;3.43;;;25.80;54.60;;;;;;4921465;29;20424;-81
2021/06/27 13:33:33;;;;;;;3.50;3.27;;;25.80;54.60;;;;;;4924017;29;20444;-80
2021/06/27 13:36:01;;;;;;;3.83;3.53;;;25.80;54.60;;;;;;4925472;29;20505;-81
2021/06/27 13:38:30;;;;;;;3.97;3.57;;;25.80;54.60;;;;;;4941491;29;20443;-81
2021/06/27 13:40:57;;;;;;;4.00;3.70;;;25.80;54.50;;;;;;4925758;29;20504;-81
2021/06/27 13:43:23;;;;;;;4.00;3.70;;;25.80;54.50;;;;;;4925574;29;20431;-80
2021/06/27 13:45:53;;;;;;;5.60;3.53;;;25.80;54.50;;;;;;4926475;29;20456;-81
2021/06/27 13:48:24;;;;;;;4.37;3.97;;;25.80;54.50;;;;;;4925441;29;20188;-81
2021/06/27 13:50:50;;;;;;;3.27;3.07;;;25.80;54.50;;;;;;4925848;29;20416;-81
2021/06/27 13:53:18;;;;;;;4.13;3.83;;;25.80;54.50;;;;;;4924770;29;20460;-81
2021/06/27 13:56:13;;;;;;;4.10;3.80;;;25.80;54.50;;;;;;4909258;29;20473;-81
2021/06/27 13:58:40;;;;;;;4.03;3.73;;;25.80;54.50;;;;;;4925186;29;20480;-81
2021/06/27 14:01:09;;;;;;;4.30;3.90;;;25.80;54.50;;;;;;4940792;29;20420;-81
2021/06/27 14:03:57;;;;;;;5.70;4.17;;;25.80;54.50;;;;;;4941146;29;20451;-81
2021/06/27 14:06:48;;;;;;;3.90;3.60;;;25.80;54.40;;;;;;4936116;29;20445;-81